Les Mechins, Canada
Current Conditions -  °F | °C
As of 5:00 AM on Friday 31 Oct 2014 (Local Time) from CYBC Reporting Station
Broken Clouds Broken Clouds  
Wind Chill: 25°   Ceiling: 14000
Heat Index: 30°   Visibility: 9mi
Dew Point: 27°   Wind: 5mph
Humidity: 86%   Direction: 310°NW
Pressure: 29.98"   Gusts: NA
Location:  48.98°N, 66.98°W
Report Text: CYBC 310900Z AUTO 31004KT 9SM BKN140 M01/M03 A2998 RMK SLP155
Loading
Personal Weather Stations






























Interactive Weather Map
Tropical Storm Tracking
New forecast layout! Learn more

10-Day Weather Forecast

Advertisements
Track Severe Weather on mobile